Time;durP1;ratioP1;P1;durP2;ratioP2;P2;SDS_P1;SDS_P2;PMS_P1;PMS_P2;Temp;Humidity;BMP_temperature;BMP_pressure;BME280_temperature;BME280_humidity;BME280_pressure;Samples;Min_cycle;Max_cycle;Signal;HPM_P1;HPM_P2
2021/05/14 00:01:48;;;;;;;18.42;15.48;;;8.30;99.90;;;;;;4993548;28;20043;-69
2021/05/14 00:04:15;;;;;;;20.90;15.70;;;8.30;99.90;;;;;;4996961;28;20051;-69
2021/05/14 00:06:41;;;;;;;20.65;15.35;;;8.30;99.90;;;;;;5002737;28;20153;-69
2021/05/14 00:09:07;;;;;;;21.33;16.83;;;8.30;99.90;;;;;;4998386;28;20062;-69
2021/05/14 00:11:36;;;;;;;22.10;16.02;;;8.30;99.90;;;;;;5006749;28;20046;-69
2021/05/14 00:14:02;;;;;;;21.42;16.67;;;8.30;99.90;;;;;;5006462;28;20038;-69
2021/05/14 00:16:28;;;;;;;19.85;15.65;;;8.30;99.90;;;;;;5006619;28;20045;-69
2021/05/14 00:18:55;;;;;;;20.50;15.07;;;8.30;99.90;;;;;;5006424;28;20053;-69
2021/05/14 00:21:21;;;;;;;20.35;15.73;;;8.30;99.90;;;;;;5006486;28;20054;-69
2021/05/14 00:23:46;;;;;;;21.00;16.58;;;8.30;99.90;;;;;;5006298;28;20077;-69
2021/05/14 00:26:12;;;;;;;20.42;16.52;;;8.30;99.90;;;;;;5005743;28;20418;-69
2021/05/14 00:28:38;;;;;;;20.85;15.38;;;8.40;99.90;;;;;;5006383;28;20131;-69
2021/05/14 00:31:04;;;;;;;23.25;16.05;;;8.40;99.90;;;;;;5006406;28;20050;-69
2021/05/14 00:33:30;;;;;;;20.60;15.38;;;8.30;99.90;;;;;;5006213;28;20576;-69
2021/05/14 00:35:56;;;;;;;24.15;16.45;;;8.30;99.90;;;;;;5005966;28;20046;-69
2021/05/14 00:38:22;;;;;;;26.20;19.08;;;8.30;99.90;;;;;;5005626;28;20505;-69
2021/05/14 00:40:47;;;;;;;24.05;18.88;;;8.10;99.90;;;;;;5005803;28;20046;-69
2021/05/14 00:43:13;;;;;;;24.40;17.40;;;8.20;99.90;;;;;;5005841;28;20539;-69
2021/05/14 00:45:39;;;;;;;32.95;18.67;;;8.20;99.90;;;;;;5006193;28;20125;-69
2021/05/14 00:48:05;;;;;;;26.65;18.15;;;8.10;99.90;;;;;;5005877;28;20062;-69
2021/05/14 00:50:30;;;;;;;25.30;17.35;;;8.20;99.90;;;;;;5005419;28;20490;-69
2021/05/14 00:52:56;;;;;;;25.33;16.77;;;8.20;99.90;;;;;;5005859;28;20047;-69
2021/05/14 00:55:22;;;;;;;21.10;15.45;;;8.30;99.90;;;;;;5005171;28;20046;-69
2021/05/14 00:57:48;;;;;;;21.63;12.60;;;8.30;99.90;;;;;;5005586;28;20046;-69
2021/05/14 01:00:15;;;;;;;16.30;13.10;;;8.30;99.90;;;;;;5005721;28;20050;-70
2021/05/14 01:02:41;;;;;;;17.95;13.35;;;8.20;99.90;;;;;;5005618;28;20502;-70
2021/05/14 01:05:07;;;;;;;17.98;13.80;;;8.20;99.90;;;;;;5005630;28;20224;-69
2021/05/14 01:07:33;;;;;;;15.57;12.27;;;8.20;99.90;;;;;;5005268;28;20054;-69
2021/05/14 01:10:00;;;;;;;17.08;12.80;;;8.20;99.90;;;;;;5005706;28;20046;-69
2021/05/14 01:12:26;;;;;;;17.05;13.32;;;8.30;99.90;;;;;;5005329;28;20109;-69
2021/05/14 01:14:51;;;;;;;17.00;12.40;;;8.30;99.90;;;;;;5005256;28;20042;-69
2021/05/14 01:17:17;;;;;;;17.83;12.27;;;8.20;99.90;;;;;;5000729;28;20046;-69
2021/05/14 01:19:43;;;;;;;14.85;11.70;;;8.20;99.90;;;;;;5005138;28;20470;-69
2021/05/14 01:22:09;;;;;;;17.20;12.05;;;8.20;99.90;;;;;;5005077;28;20300;-69
2021/05/14 01:24:35;;;;;;;17.13;11.80;;;8.20;99.90;;;;;;5004717;28;20046;-69
2021/05/14 01:27:02;;;;;;;15.88;12.35;;;8.10;99.90;;;;;;5004769;28;20096;-69
2021/05/14 01:29:28;;;;;;;16.13;10.37;;;8.00;99.90;;;;;;4999882;28;20074;-69
2021/05/14 01:31:53;;;;;;;17.10;10.80;;;8.10;99.90;;;;;;4999256;28;20049;-69
2021/05/14 01:34:19;;;;;;;17.58;11.18;;;8.10;99.90;;;;;;4994681;28;20553;-69
2021/05/14 01:36:45;;;;;;;18.88;11.65;;;8.10;99.90;;;;;;4996794;28;20042;-69
2021/05/14 01:39:13;;;;;;;27.50;12.90;;;8.10;99.90;;;;;;5004602;28;20297;-69
2021/05/14 01:41:40;;;;;;;20.90;12.43;;;8.10;99.90;;;;;;5005010;28;20057;-69
2021/05/14 01:44:07;;;;;;;20.20;11.65;;;8.20;99.90;;;;;;5004940;28;20045;-69
2021/05/14 01:46:33;;;;;;;17.38;11.13;;;8.20;99.90;;;;;;5004116;28;20089;-69
2021/05/14 01:48:59;;;;;;;19.45;8.98;;;8.20;99.90;;;;;;5004600;28;20046;-69
2021/05/14 01:51:25;;;;;;;13.38;7.53;;;8.10;99.90;;;;;;5004291;28;20041;-69
2021/05/14 01:53:52;;;;;;;17.42;8.55;;;8.10;99.90;;;;;;5002308;28;20546;-69
2021/05/14 01:56:19;;;;;;;18.92;8.15;;;8.10;99.90;;;;;;5003976;28;20561;-70
2021/05/14 01:58:49;;;;;;;16.58;9.45;;;8.10;99.90;;;;;;5004662;28;20038;-70
2021/05/14 02:01:15;;;;;;;13.27;8.65;;;8.10;99.90;;;;;;5019332;28;20046;-70
2021/05/14 02:03:41;;;;;;;17.00;9.10;;;8.10;99.90;;;;;;5004208;28;20128;-70
2021/05/14 02:06:07;;;;;;;11.32;7.57;;;8.10;99.90;;;;;;5004465;28;20050;-69
2021/05/14 02:08:35;;;;;;;14.68;8.35;;;8.00;99.90;;;;;;5004210;28;20046;-70
2021/05/14 02:11:03;;;;;;;16.23;8.48;;;8.10;99.90;;;;;;4992462;28;20510;-70
2021/05/14 02:13:29;;;;;;;14.45;8.88;;;8.00;99.90;;;;;;4998914;28;20102;-69
2021/05/14 02:15:54;;;;;;;10.30;6.72;;;8.10;99.90;;;;;;5004068;28;20097;-69
2021/05/14 02:18:20;;;;;;;14.25;7.07;;;8.10;99.90;;;;;;5003282;28;20050;-68
2021/05/14 02:20:47;;;;;;;14.43;7.25;;;8.10;99.90;;;;;;4991307;28;20045;-68
2021/05/14 02:23:13;;;;;;;14.70;6.40;;;8.20;99.90;;;;;;4997998;28;20046;-69
2021/05/14 02:25:39;;;;;;;14.80;7.00;;;8.20;99.90;;;;;;5003419;28;20514;-68
2021/05/14 02:28:07;;;;;;;17.63;5.90;;;8.20;99.90;;;;;;5003907;28;20105;-69
2021/05/14 02:30:34;;;;;;;14.65;7.80;;;8.20;99.90;;;;;;5004381;28;20066;-68
2021/05/14 02:32:59;;;;;;;12.20;6.63;;;8.30;99.90;;;;;;5003168;28;20053;-69
2021/05/14 02:35:25;;;;;;;11.50;7.43;;;8.20;99.90;;;;;;5004027;28;20494;-68
2021/05/14 02:37:51;;;;;;;12.35;7.28;;;8.30;99.90;;;;;;5003814;28;20102;-68
2021/05/14 02:40:17;;;;;;;13.65;6.45;;;8.30;99.90;;;;;;5003280;28;20073;-68
2021/05/14 02:42:43;;;;;;;16.60;6.47;;;8.20;99.90;;;;;;4997198;28;20052;-68
2021/05/14 02:45:09;;;;;;;13.32;7.50;;;8.30;99.90;;;;;;5003825;28;20057;-68
2021/05/14 02:47:35;;;;;;;16.48;8.15;;;8.30;99.90;;;;;;5003970;28;20114;-69
2021/05/14 02:50:01;;;;;;;13.40;7.68;;;8.40;99.90;;;;;;5002644;28;20065;-69
2021/05/14 02:52:27;;;;;;;9.25;6.85;;;8.40;99.90;;;;;;5015648;28;20586;-69
2021/05/14 02:54:53;;;;;;;18.27;8.00;;;8.40;99.90;;;;;;5000009;28;20121;-69
2021/05/14 02:57:21;;;;;;;16.88;7.40;;;8.40;99.90;;;;;;5003809;28;20110;-69
2021/05/14 02:59:46;;;;;;;;;;;8.40;99.90;;;;;;5004278;28;20042;-69
2021/05/14 03:02:12;;;;;;;19.10;7.93;;;8.40;99.90;;;;;;5002353;28;19926;-69
2021/05/14 03:04:38;;;;;;;12.05;6.90;;;8.40;99.90;;;;;;5003366;28;20050;-69
2021/05/14 03:07:04;;;;;;;13.43;6.50;;;8.40;99.90;;;;;;5003699;28;20046;-69
2021/05/14 03:09:30;;;;;;;15.50;6.25;;;8.40;99.90;;;;;;5003215;28;20042;-69
2021/05/14 03:11:56;;;;;;;13.80;6.80;;;8.40;99.90;;;;;;5001471;28;20129;-69
2021/05/14 03:14:21;;;;;;;16.60;7.38;;;8.30;99.90;;;;;;4994114;28;20463;-69
2021/05/14 03:16:47;;;;;;;14.10;6.40;;;8.40;99.90;;;;;;5003337;28;20126;-69
2021/05/14 03:19:15;;;;;;;12.82;7.10;;;8.40;99.90;;;;;;5003612;28;20047;-69
2021/05/14 03:21:41;;;;;;;15.65;7.20;;;8.40;99.90;;;;;;5000934;28;20105;-69
2021/05/14 03:24:07;;;;;;;15.32;7.13;;;8.30;99.90;;;;;;5003002;28;20038;-69
2021/05/14 03:26:33;;;;;;;11.60;6.70;;;8.40;99.90;;;;;;5000533;28;20102;-69
2021/05/14 03:28:59;;;;;;;15.70;6.78;;;8.30;99.90;;;;;;4990692;28;20042;-69
2021/05/14 03:31:25;;;;;;;19.05;6.53;;;8.30;99.90;;;;;;5000780;28;20050;-69
2021/05/14 03:33:50;;;;;;;16.40;6.70;;;8.30;99.90;;;;;;5003003;28;20046;-69
2021/05/14 03:36:25;;;;;;;17.05;6.85;;;8.30;99.90;;;;;;5003581;28;20117;-69
2021/05/14 03:38:51;;;;;;;16.85;6.60;;;8.30;99.90;;;;;;5002471;28;20054;-69
2021/05/14 03:41:31;;;;;;;10.95;5.82;;;8.30;99.90;;;;;;5002995;28;20042;-69
2021/05/14 03:43:58;;;;;;;23.33;6.85;;;8.50;99.90;;;;;;5003534;28;20129;-69
2021/05/14 03:46:27;;;;;;;21.67;6.72;;;8.30;99.90;;;;;;5007096;28;20050;-69
2021/05/14 03:48:53;;;;;;;12.23;6.20;;;8.30;99.90;;;;;;4997497;28;20131;-69
2021/05/14 03:51:19;;;;;;;15.73;6.00;;;8.30;99.90;;;;;;5006370;28;20091;-69
2021/05/14 03:53:44;;;;;;;19.15;6.10;;;8.30;99.90;;;;;;5006258;28;20047;-69
2021/05/14 03:56:10;;;;;;;15.60;5.70;;;8.30;99.90;;;;;;5000001;28;20077;-70
2021/05/14 03:58:36;;;;;;;15.35;6.20;;;8.30;99.90;;;;;;5005983;28;20072;-69
2021/05/14 04:01:02;;;;;;;15.40;5.85;;;8.30;99.90;;;;;;5006721;28;20050;-69
2021/05/14 04:03:28;;;;;;;16.77;5.97;;;8.30;99.90;;;;;;5006714;28;20066;-69
2021/05/14 04:05:54;;;;;;;16.35;6.60;;;8.20;99.90;;;;;;5018249;28;20054;-69
2021/05/14 04:08:20;;;;;;;12.75;6.28;;;8.20;99.90;;;;;;5001688;28;20050;-69
2021/05/14 04:16:00;;;;;;;11.45;5.05;;;8.30;99.90;;;;;;4995774;28;20047;-69
2021/05/14 04:18:26;;;;;;;18.73;5.18;;;8.30;99.90;;;;;;5005784;28;20513;-70
2021/05/14 04:20:52;;;;;;;11.63;4.15;;;8.30;99.90;;;;;;5006488;28;20065;-69
2021/05/14 04:23:18;;;;;;;14.32;4.28;;;8.30;99.90;;;;;;5006349;28;20050;-69
2021/05/14 04:25:44;;;;;;;7.28;4.32;;;8.30;99.90;;;;;;5005966;28;20038;-69
2021/05/14 04:28:10;;;;;;;10.65;5.15;;;8.40;99.90;;;;;;5007110;28;20165;-69
2021/05/14 04:30:36;;;;;;;13.60;5.28;;;8.40;99.90;;;;;;5005947;28;20058;-69
2021/05/14 04:33:02;;;;;;;14.77;4.70;;;8.40;99.90;;;;;;5005669;28;20050;-69
2021/05/14 04:35:28;;;;;;;16.60;5.25;;;8.40;99.90;;;;;;5001812;28;20129;-69
2021/05/14 04:37:54;;;;;;;17.90;4.65;;;8.40;99.90;;;;;;5006042;28;20573;-69
2021/05/14 04:40:21;;;;;;;13.35;4.63;;;8.40;99.90;;;;;;5005824;28;20097;-70
2021/05/14 04:42:46;;;;;;;14.48;4.90;;;8.40;99.90;;;;;;5005617;28;20062;-69
2021/05/14 04:45:13;;;;;;;23.02;3.42;;;8.40;99.90;;;;;;5005801;28;20070;-69
2021/05/14 04:47:39;;;;;;;11.35;4.05;;;8.40;99.90;;;;;;5006074;28;20038;-69
2021/05/14 04:50:05;;;;;;;14.25;5.07;;;8.50;99.90;;;;;;5002919;28;20069;-69
2021/05/14 04:52:31;;;;;;;9.65;4.78;;;8.50;99.90;;;;;;5006191;28;20050;-69
2021/05/14 04:54:58;;;;;;;18.25;6.65;;;8.40;99.90;;;;;;5001545;28;20058;-69
2021/05/14 04:57:24;;;;;;;17.52;6.00;;;8.50;99.90;;;;;;5004933;28;20141;-69
2021/05/14 04:59:50;;;;;;;12.45;4.55;;;8.50;99.90;;;;;;4998623;28;20066;-69
2021/05/14 05:02:16;;;;;;;11.35;4.30;;;8.40;99.90;;;;;;5005743;28;20053;-69
2021/05/14 05:04:42;;;;;;;11.80;4.90;;;8.40;99.90;;;;;;5005407;28;20054;-69
2021/05/14 05:07:08;;;;;;;10.07;4.47;;;8.50;99.90;;;;;;5005434;28;20062;-69
2021/05/14 05:09:35;;;;;;;17.02;4.93;;;8.50;99.90;;;;;;5005135;28;20049;-70
2021/05/14 05:12:02;;;;;;;10.98;4.40;;;8.50;99.90;;;;;;5005560;28;20056;-70
2021/05/14 05:14:28;;;;;;;20.15;4.35;;;8.50;99.90;;;;;;5001946;28;20046;-69
2021/05/14 05:16:54;;;;;;;14.50;4.97;;;8.50;99.90;;;;;;5000798;28;20117;-69
2021/05/14 05:19:20;;;;;;;14.70;5.63;;;8.60;99.90;;;;;;5005474;28;20050;-69
2021/05/14 05:21:47;;;;;;;19.00;3.92;;;8.50;99.90;;;;;;5004461;28;20072;-69
2021/05/14 05:24:13;;;;;;;10.32;4.18;;;8.50;99.90;;;;;;5004983;28;20057;-69
2021/05/14 05:26:39;;;;;;;17.98;4.60;;;8.50;99.90;;;;;;4998275;28;20054;-69
2021/05/14 05:29:05;;;;;;;13.45;4.70;;;8.60;99.90;;;;;;5005547;28;20046;-69
2021/05/14 05:31:31;;;;;;;16.15;5.35;;;8.50;99.90;;;;;;5005102;28;20069;-69
2021/05/14 05:33:57;;;;;;;11.98;4.90;;;8.60;99.90;;;;;;5003549;28;20042;-70
2021/05/14 05:36:22;;;;;;;14.85;4.75;;;8.60;99.90;;;;;;4997371;28;20052;-69
2021/05/14 05:38:50;;;;;;;17.55;5.85;;;8.60;99.90;;;;;;5004335;28;20050;-69
2021/05/14 05:41:17;;;;;;;18.10;6.40;;;8.70;99.90;;;;;;5004977;28;20055;-69
2021/05/14 05:43:44;;;;;;;15.00;6.03;;;8.70;99.90;;;;;;5004817;28;20073;-69
2021/05/14 05:46:10;;;;;;;17.73;6.57;;;8.70;99.90;;;;;;5004824;28;20062;-69
2021/05/14 05:48:36;;;;;;;15.65;6.90;;;8.80;99.90;;;;;;5004793;28;20345;-69
2021/05/14 05:51:02;;;;;;;15.55;4.82;;;8.80;99.90;;;;;;5005079;28;20053;-69
2021/05/14 05:53:27;;;;;;;20.50;5.25;;;8.90;99.90;;;;;;5004352;28;20122;-69
2021/05/14 05:55:53;;;;;;;18.75;6.60;;;8.90;99.90;;;;;;5004130;28;20061;-69
2021/05/14 05:58:19;;;;;;;17.80;4.80;;;9.00;99.90;;;;;;4998302;28;20053;-69
2021/05/14 06:00:47;;;;;;;15.93;5.30;;;8.90;99.90;;;;;;4996816;28;20062;-69
2021/05/14 06:03:14;;;;;;;11.50;4.43;;;9.00;99.90;;;;;;4999678;28;20054;-69
2021/05/14 06:05:40;;;;;;;15.50;5.10;;;9.00;99.90;;;;;;5004897;28;20046;-69
2021/05/14 06:08:06;;;;;;;13.63;5.03;;;9.00;99.90;;;;;;5003025;28;20055;-70
2021/05/14 06:10:42;;;;;;;17.63;7.07;;;9.00;99.90;;;;;;4991531;28;20054;-69
2021/05/14 06:13:08;;;;;;;18.15;5.03;;;9.00;99.90;;;;;;5004418;28;20434;-69
2021/05/14 06:15:34;;;;;;;17.20;3.65;;;9.00;99.90;;;;;;5004340;28;20043;-69
2021/05/14 06:18:00;;;;;;;13.27;4.13;;;9.00;99.90;;;;;;5000834;28;20070;-70
2021/05/14 06:20:28;;;;;;;15.25;4.55;;;9.00;99.90;;;;;;5001554;28;20046;-69
2021/05/14 06:22:54;;;;;;;23.23;6.05;;;8.90;99.90;;;;;;5003962;28;20050;-69
2021/05/14 06:25:20;;;;;;;14.98;4.95;;;9.00;99.90;;;;;;5018317;28;20050;-69
2021/05/14 06:27:46;;;;;;;12.15;4.88;;;9.00;99.90;;;;;;4999071;28;20034;-69
2021/05/14 06:30:13;;;;;;;16.48;4.50;;;9.00;99.90;;;;;;4997536;28;20050;-69
2021/05/14 06:32:39;;;;;;;10.90;3.63;;;9.10;99.90;;;;;;5004474;28;20549;-69
2021/05/14 06:35:06;;;;;;;14.80;4.35;;;9.00;99.90;;;;;;5003778;28;20097;-69
2021/05/14 06:37:36;;;;;;;13.02;3.92;;;9.00;99.90;;;;;;5003727;28;20062;-70
2021/05/14 06:40:07;;;;;;;12.95;3.90;;;8.90;99.90;;;;;;5003329;28;20102;-69
2021/05/14 06:42:33;;;;;;;10.95;4.13;;;9.00;99.90;;;;;;5003764;28;20042;-69
2021/05/14 06:44:59;;;;;;;15.88;4.63;;;9.00;99.90;;;;;;5003807;28;20046;-69
2021/05/14 06:47:24;;;;;;;12.32;3.92;;;9.10;99.90;;;;;;5003784;28;20125;-69
2021/05/14 06:49:50;;;;;;;15.60;4.30;;;9.10;99.90;;;;;;4995634;28;20106;-70
2021/05/14 06:52:16;;;;;;;17.08;4.90;;;9.10;99.90;;;;;;5002587;28;20042;-69
2021/05/14 06:54:42;;;;;;;19.55;4.95;;;9.20;99.90;;;;;;5002763;28;20117;-69
2021/05/14 06:57:08;;;;;;;10.25;4.10;;;9.20;99.90;;;;;;5003984;28;20056;-69
2021/05/14 06:59:33;;;;;;;16.20;4.85;;;9.20;99.90;;;;;;4990917;28;20047;-70
2021/05/14 07:01:59;;;;;;;14.57;5.05;;;9.20;99.90;;;;;;5002667;28;20052;-70
2021/05/14 07:04:25;;;;;;;15.63;4.53;;;9.40;99.90;;;;;;5003788;28;20506;-70
2021/05/14 07:06:51;;;;;;;12.77;4.53;;;9.40;99.90;;;;;;4997863;28;20062;-70
2021/05/14 07:09:17;;;;;;;15.15;4.85;;;9.40;99.90;;;;;;4995253;28;20110;-70
2021/05/14 07:11:42;;;;;;;8.93;5.05;;;9.40;99.90;;;;;;4998783;28;20042;-69
2021/05/14 07:14:09;;;;;;;10.65;6.05;;;9.40;99.90;;;;;;5003165;28;20046;-69
2021/05/14 07:16:35;;;;;;;9.50;4.30;;;9.60;99.90;;;;;;5003895;28;20042;-70
2021/05/14 07:19:01;;;;;;;12.80;4.78;;;9.50;99.90;;;;;;5004216;28;20515;-68
2021/05/14 07:21:27;;;;;;;19.60;4.90;;;9.70;99.90;;;;;;5007715;28;20122;-68
2021/05/14 07:23:54;;;;;;;14.10;4.40;;;9.80;99.90;;;;;;5006464;28;20079;-69
2021/05/14 07:26:20;;;;;;;14.88;5.30;;;9.80;99.90;;;;;;5007462;28;20670;-69
2021/05/14 07:28:46;;;;;;;11.68;4.60;;;9.80;99.90;;;;;;5007313;28;20106;-68
2021/05/14 07:31:12;;;;;;;10.88;4.57;;;9.80;99.90;;;;;;5007068;28;20050;-69
2021/05/14 07:33:39;;;;;;;13.73;4.75;;;10.00;99.90;;;;;;5007054;28;20076;-69
2021/05/14 07:36:06;;;;;;;12.82;4.88;;;9.60;99.90;;;;;;5007875;28;20046;-70
2021/05/14 07:38:32;;;;;;;13.45;4.05;;;9.60;99.90;;;;;;5006457;28;20112;-68
2021/05/14 07:40:58;;;;;;;15.15;4.55;;;9.70;99.90;;;;;;5007316;28;20486;-68
2021/05/14 07:43:24;;;;;;;11.13;4.35;;;9.70;99.90;;;;;;5006868;28;20113;-68
2021/05/14 07:45:49;;;;;;;12.48;5.22;;;9.80;99.90;;;;;;5007120;28;20042;-68
2021/05/14 07:48:21;;;;;;;14.82;4.50;;;10.00;99.90;;;;;;5007143;28;20050;-69
2021/05/14 07:50:48;;;;;;;12.23;4.93;;;10.00;99.90;;;;;;5006809;28;20057;-69
2021/05/14 07:53:20;;;;;;;22.00;5.75;;;10.00;99.90;;;;;;5007046;28;20061;-68
2021/05/14 07:55:46;;;;;;;14.68;4.90;;;10.20;99.90;;;;;;5006609;28;20054;-68
2021/05/14 07:58:11;;;;;;;14.77;5.68;;;10.20;99.90;;;;;;5006671;28;20049;-68
2021/05/14 08:00:39;;;;;;;11.88;5.25;;;10.20;99.90;;;;;;5006950;28;20046;-68
2021/05/14 08:03:08;;;;;;;11.68;5.10;;;10.10;99.90;;;;;;5006292;28;20560;-68
2021/05/14 08:05:34;;;;;;;10.88;5.15;;;10.20;99.90;;;;;;5006723;28;20046;-68
2021/05/14 08:08:12;;;;;;;13.32;4.78;;;10.30;99.90;;;;;;5006702;28;20062;-68
2021/05/14 08:10:46;;;;;;;11.02;4.78;;;10.10;99.90;;;;;;5000276;28;20140;-68
2021/05/14 08:13:11;;;;;;;10.00;4.32;;;10.30;99.90;;;;;;5006749;28;20050;-68
2021/05/14 08:15:39;;;;;;;13.48;4.35;;;10.30;99.90;;;;;;5006515;28;20050;-69
2021/05/14 08:18:05;;;;;;;11.10;4.15;;;10.40;99.90;;;;;;5006131;28;20053;-68
2021/05/14 08:20:32;;;;;;;15.05;4.88;;;10.60;99.90;;;;;;5006679;28;20049;-69
2021/05/14 08:22:58;;;;;;;13.47;4.40;;;10.70;99.90;;;;;;4998496;28;20062;-68
2021/05/14 08:25:24;;;;;;;14.73;4.82;;;10.80;99.90;;;;;;4996846;28;20047;-69
2021/05/14 08:27:50;;;;;;;12.38;4.85;;;10.70;99.90;;;;;;5000010;28;20047;-68
2021/05/14 08:30:17;;;;;;;13.77;5.47;;;11.00;99.90;;;;;;4992416;28;20070;-69
2021/05/14 08:32:42;;;;;;;10.20;4.50;;;10.90;99.90;;;;;;4989029;28;20066;-69
2021/05/14 08:35:09;;;;;;;8.15;3.55;;;10.90;99.90;;;;;;4998341;28;20494;-69
2021/05/14 08:37:40;;;;;;;11.88;3.72;;;10.70;99.90;;;;;;5001952;28;20042;-69
2021/05/14 08:40:08;;;;;;;11.50;4.18;;;10.60;99.90;;;;;;4996418;28;20241;-69
2021/05/14 08:42:39;;;;;;;18.00;4.85;;;10.80;99.90;;;;;;5006017;28;20076;-70
2021/05/14 08:45:26;;;;;;;7.80;3.70;;;10.70;99.90;;;;;;5018213;28;20038;-69
2021/05/14 08:47:54;;;;;;;11.98;3.63;;;10.80;99.90;;;;;;5006173;28;20034;-69
2021/05/14 08:50:21;;;;;;;12.30;3.70;;;10.70;99.90;;;;;;5005784;28;20088;-68
2021/05/14 08:52:47;;;;;;;12.55;4.30;;;10.80;99.90;;;;;;5006100;28;20042;-69
2021/05/14 08:55:15;;;;;;;11.20;4.05;;;10.80;99.90;;;;;;5003169;28;20106;-69
2021/05/14 08:57:41;;;;;;;11.37;4.53;;;10.60;99.90;;;;;;4997494;28;20085;-69
2021/05/14 09:00:09;;;;;;;13.63;4.30;;;10.90;99.90;;;;;;5005788;28;20049;-69
2021/05/14 09:02:41;;;;;;;12.20;4.00;;;11.00;99.90;;;;;;5005197;28;20050;-69
2021/05/14 09:05:32;;;;;;;17.00;4.68;;;11.10;99.90;;;;;;5002819;28;20047;-69
2021/05/14 09:07:59;;;;;;;17.15;4.95;;;11.00;99.90;;;;;;4998341;28;20069;-69
2021/05/14 09:10:26;;;;;;;10.68;4.50;;;10.80;99.90;;;;;;5004990;28;20042;-70
2021/05/14 09:12:52;;;;;;;14.32;6.38;;;10.90;99.90;;;;;;5005490;28;20117;-70
2021/05/14 09:15:30;;;;;;;11.80;4.53;;;11.10;99.90;;;;;;5005262;28;20042;-69
2021/05/14 09:18:10;;;;;;;14.38;4.22;;;10.90;99.90;;;;;;4996199;28;20050;-69
2021/05/14 09:20:54;;;;;;;14.98;4.57;;;10.90;99.90;;;;;;5005025;28;20052;-69
2021/05/14 09:23:20;;;;;;;14.35;3.83;;;11.10;99.90;;;;;;5005206;28;20052;-69
2021/05/14 09:26:00;;;;;;;10.43;4.00;;;11.00;99.90;;;;;;5001826;28;20042;-69
2021/05/14 09:28:40;;;;;;;11.57;4.75;;;11.00;99.90;;;;;;5001184;28;20042;-69
2021/05/14 09:31:11;;;;;;;12.63;3.30;;;11.30;99.90;;;;;;5004559;28;20050;-69
2021/05/14 09:33:46;;;;;;;14.20;4.07;;;11.50;99.90;;;;;;5005382;28;20042;-69
2021/05/14 09:36:19;;;;;;;15.15;3.75;;;11.60;99.90;;;;;;5007290;28;20073;-69
2021/05/14 09:38:57;;;;;;;11.65;3.97;;;11.70;99.90;;;;;;5004792;28;20043;-69
2021/05/14 09:41:36;;;;;;;10.18;3.90;;;11.70;99.90;;;;;;5005014;28;20504;-69
2021/05/14 09:44:18;;;;;;;13.60;4.05;;;11.80;99.90;;;;;;5004312;28;20046;-69
2021/05/14 09:46:51;;;;;;;7.82;3.40;;;12.00;99.90;;;;;;5004772;28;20073;-69
2021/05/14 09:49:22;;;;;;;11.20;3.85;;;11.90;99.90;;;;;;4999046;28;20058;-69
2021/05/14 09:51:51;;;;;;;11.07;4.07;;;11.80;99.90;;;;;;5004954;28;20042;-69
2021/05/14 09:54:32;;;;;;;10.73;4.32;;;11.80;99.90;;;;;;5003858;28;20345;-69
2021/05/14 09:59:44;;;;;;;10.07;3.92;;;12.10;99.90;;;;;;4994802;28;20047;-69
2021/05/14 10:02:33;;;;;;;10.48;4.38;;;12.10;99.90;;;;;;5001463;28;20364;-69
2021/05/14 10:05:01;;;;;;;11.43;4.85;;;12.20;99.90;;;;;;5004280;28;20449;-69
2021/05/14 10:07:29;;;;;;;14.77;4.32;;;12.20;99.90;;;;;;5004661;28;20045;-69
2021/05/14 10:09:59;;;;;;;14.20;5.45;;;12.30;99.90;;;;;;5004192;28;20050;-69
2021/05/14 10:12:26;;;;;;;19.75;5.55;;;12.20;99.90;;;;;;5004482;28;20038;-69
2021/05/14 10:14:52;;;;;;;15.13;4.93;;;12.10;99.90;;;;;;5004640;28;20528;-70
2021/05/14 10:17:23;;;;;;;10.27;4.50;;;12.00;99.90;;;;;;5004206;28;20304;-69
2021/05/14 10:19:50;;;;;;;11.50;4.57;;;12.00;99.90;;;;;;5004229;28;20122;-69
2021/05/14 10:22:29;;;;;;;10.90;4.28;;;11.90;99.90;;;;;;5003084;28;20042;-69
2021/05/14 10:24:58;;;;;;;15.80;4.15;;;12.00;99.90;;;;;;4995383;28;20552;-69
2021/05/14 10:27:29;;;;;;;11.57;4.45;;;11.90;99.90;;;;;;5002721;28;20100;-69
2021/05/14 10:30:00;;;;;;;10.27;4.07;;;11.90;99.90;;;;;;5003975;28;20054;-69
2021/05/14 10:32:44;;;;;;;17.33;4.40;;;11.80;99.90;;;;;;5003955;28;20069;-69
2021/05/14 10:35:15;;;;;;;10.85;4.68;;;11.70;99.90;;;;;;4995081;28;20058;-68
2021/05/14 10:37:48;;;;;;;10.45;4.18;;;11.80;99.90;;;;;;5002891;28;20120;-68
2021/05/14 10:40:32;;;;;;;10.88;4.22;;;11.90;99.90;;;;;;5003275;28;20050;-69
2021/05/14 10:43:05;;;;;;;14.25;3.95;;;12.10;99.90;;;;;;4995740;28;20057;-69
2021/05/14 10:45:34;;;;;;;12.35;4.47;;;12.10;99.90;;;;;;4993523;28;20059;-69
2021/05/14 10:48:02;;;;;;;8.65;4.28;;;12.10;99.90;;;;;;5003857;28;20046;-69
2021/05/14 10:50:34;;;;;;;15.13;4.95;;;12.00;99.90;;;;;;5003643;28;20044;-69
2021/05/14 10:53:43;;;;;;;15.07;5.25;;;11.80;99.90;;;;;;5003564;28;20046;-69
2021/05/14 10:56:08;;;;;;;13.38;4.70;;;12.10;99.90;;;;;;5003473;28;20054;-68
2021/05/14 10:58:38;;;;;;;14.10;4.70;;;12.20;99.90;;;;;;5003778;28;20053;-69
2021/05/14 11:01:05;;;;;;;12.85;4.18;;;12.30;99.90;;;;;;5003838;28;20046;-68
2021/05/14 11:03:34;;;;;;;10.10;5.10;;;12.20;99.90;;;;;;5003649;28;20050;-68
2021/05/14 11:06:18;;;;;;;11.60;4.00;;;12.10;99.90;;;;;;5003630;28;20042;-69
2021/05/14 11:09:06;;;;;;;12.07;4.22;;;12.20;99.90;;;;;;5002764;28;20331;-69
2021/05/14 11:11:32;;;;;;;10.98;4.32;;;12.30;99.90;;;;;;5018762;28;20050;-70
2021/05/14 11:14:17;;;;;;;13.07;4.20;;;12.30;99.90;;;;;;4994332;28;20125;-69
2021/05/14 11:16:44;;;;;;;10.07;4.25;;;12.60;99.90;;;;;;5003465;28;20078;-69
2021/05/14 11:19:24;;;;;;;8.87;3.90;;;12.40;99.90;;;;;;5003531;28;20046;-69
2021/05/14 11:22:00;;;;;;;12.77;4.93;;;12.50;99.90;;;;;;5003851;28;20154;-69
2021/05/14 11:24:45;;;;;;;9.15;3.95;;;12.50;99.90;;;;;;5001772;28;20081;-69
2021/05/14 11:27:12;;;;;;;13.85;3.83;;;12.70;99.90;;;;;;5003505;28;20050;-69
2021/05/14 11:29:50;;;;;;;9.32;4.07;;;13.00;99.90;;;;;;5002017;28;20046;-69
2021/05/14 11:32:17;;;;;;;;;;;13.00;99.90;;;;;;5004540;28;20042;-69
2021/05/14 11:34:53;;;;;;;12.05;3.65;;;13.00;99.90;;;;;;5003150;28;19929;-70
2021/05/14 11:37:26;;;;;;;12.00;4.32;;;12.90;99.90;;;;;;5003652;28;20754;-69
2021/05/14 11:39:54;;;;;;;11.38;3.97;;;13.10;99.90;;;;;;5002960;28;20074;-69
2021/05/14 11:42:25;;;;;;;15.23;4.68;;;13.00;99.90;;;;;;5003216;28;20057;-69
2021/05/14 11:45:06;;;;;;;17.10;4.85;;;13.10;99.90;;;;;;5002864;28;20046;-68
2021/05/14 11:47:33;;;;;;;8.43;4.00;;;13.10;99.90;;;;;;5003817;28;20130;-68
2021/05/14 11:49:59;;;;;;;11.45;4.28;;;12.80;99.90;;;;;;4992557;28;20042;-68
2021/05/14 11:52:35;;;;;;;12.80;4.40;;;12.60;99.90;;;;;;5003342;28;20053;-68
2021/05/14 11:55:05;;;;;;;9.52;3.85;;;12.80;99.90;;;;;;5002227;28;20065;-69
2021/05/14 11:57:31;;;;;;;15.00;6.03;;;13.00;99.90;;;;;;5002866;28;20129;-69
2021/05/14 11:59:58;;;;;;;15.68;4.43;;;12.70;99.90;;;;;;5003126;28;20046;-68
2021/05/14 12:02:38;;;;;;;20.48;4.90;;;13.00;99.90;;;;;;4995479;28;20045;-68
2021/05/14 12:05:06;;;;;;;13.10;4.88;;;13.00;99.90;;;;;;5003905;28;20105;-69
2021/05/14 12:07:32;;;;;;;11.07;4.53;;;13.00;99.90;;;;;;4998986;28;20042;-68
2021/05/14 12:09:59;;;;;;;10.35;4.95;;;13.10;99.90;;;;;;5005937;28;20050;-68
2021/05/14 12:12:24;;;;;;;12.23;5.60;;;13.30;99.90;;;;;;4998517;28;20077;-69
2021/05/14 12:14:51;;;;;;;14.52;5.55;;;13.20;99.90;;;;;;5006672;28;20533;-69
2021/05/14 12:17:17;;;;;;;15.02;5.85;;;13.10;99.90;;;;;;5006627;28;20034;-69
2021/05/14 12:19:47;;;;;;;24.40;6.47;;;13.20;99.90;;;;;;5006542;28;20076;-68
2021/05/14 12:22:13;;;;;;;14.05;6.10;;;13.10;99.90;;;;;;4998095;28;20038;-68
2021/05/14 12:24:40;;;;;;;12.68;5.85;;;13.10;99.90;;;;;;5005719;28;20125;-69
2021/05/14 12:27:09;;;;;;;15.13;6.35;;;13.00;99.90;;;;;;5006056;28;20046;-69
2021/05/14 12:29:35;;;;;;;13.60;5.82;;;12.90;99.90;;;;;;5006386;28;20053;-68
2021/05/14 12:32:03;;;;;;;17.98;6.18;;;12.80;99.90;;;;;;5021507;28;20050;-68
2021/05/14 12:34:29;;;;;;;14.52;6.32;;;12.80;99.90;;;;;;5000986;28;20046;-69
2021/05/14 12:36:58;;;;;;;13.65;6.20;;;12.60;99.90;;;;;;5005833;28;20047;-69
2021/05/14 12:39:25;;;;;;;19.77;6.45;;;12.70;99.90;;;;;;5005280;28;20038;-69
2021/05/14 12:42:09;;;;;;;15.27;5.80;;;12.70;99.90;;;;;;5021087;28;20046;-69
2021/05/14 12:44:36;;;;;;;14.07;6.22;;;12.80;99.90;;;;;;5003822;28;20043;-68
2021/05/14 12:47:04;;;;;;;11.15;6.63;;;13.10;99.90;;;;;;5005991;28;20051;-68
2021/05/14 12:49:44;;;;;;;11.98;5.30;;;13.00;99.90;;;;;;5005643;28;20045;-68
2021/05/14 12:52:12;;;;;;;15.30;5.82;;;12.80;99.90;;;;;;4998222;28;20106;-69
2021/05/14 12:54:39;;;;;;;10.88;5.45;;;12.70;99.90;;;;;;5003682;28;20039;-68
2021/05/14 12:57:06;;;;;;;12.63;5.95;;;13.10;99.90;;;;;;5005544;28;20046;-68